sensor_id;sensor_type;location;lat;lon;timestamp;pressure;altitude;pressure_sealevel;temperature;humidity
27805;BME280;15183;51.350;11.102;2022-11-25T00:01:37;99982.50;;;7.59;70.59
27805;BME280;15183;51.350;11.102;2022-11-25T00:04:04;100007.47;;;7.70;70.34
27805;BME280;15183;51.350;11.102;2022-11-25T00:06:33;100005.03;;;7.61;70.06
27805;BME280;15183;51.350;11.102;2022-11-25T00:09:08;99911.91;;;7.14;70.12
27805;BME280;15183;51.350;11.102;2022-11-25T00:11:41;100008.28;;;7.70;70.46
27805;BME280;15183;51.350;11.102;2022-11-25T00:14:14;100008.69;;;7.67;69.87
27805;BME280;15183;51.350;11.102;2022-11-25T00:16:40;99936.84;;;7.18;70.01
27805;BME280;15183;51.350;11.102;2022-11-25T00:19:09;99983.53;;;7.44;69.95
27805;BME280;15183;51.350;11.102;2022-11-25T00:21:37;99982.91;;;7.42;70.29
27805;BME280;15183;51.350;11.102;2022-11-25T00:24:11;99953.28;;;7.13;70.05
27805;BME280;15183;51.350;11.102;2022-11-25T00:26:39;99924.06;;;7.01;69.87
27805;BME280;15183;51.350;11.102;2022-11-25T00:29:11;99977.63;;;7.35;69.96
27805;BME280;15183;51.350;11.102;2022-11-25T00:31:39;99947.00;;;7.21;69.89
27805;BME280;15183;51.350;11.102;2022-11-25T00:34:06;99961.00;;;7.28;69.47
27805;BME280;15183;51.350;11.102;2022-11-25T00:36:36;99989.19;;;7.41;69.96
27805;BME280;15183;51.350;11.102;2022-11-25T00:39:15;99991.00;;;7.41;69.52
27805;BME280;15183;51.350;11.102;2022-11-25T00:41:45;99976.59;;;7.23;69.54
27805;BME280;15183;51.350;11.102;2022-11-25T00:44:30;99917.31;;;6.72;69.86
27805;BME280;15183;51.350;11.102;2022-11-25T00:47:21;99900.03;;;6.56;70.03
27805;BME280;15183;51.350;11.102;2022-11-25T00:49:53;99906.72;;;6.51;70.35
27805;BME280;15183;51.350;11.102;2022-11-25T00:52:23;99917.84;;;6.60;69.54
27805;BME280;15183;51.350;11.102;2022-11-25T00:54:53;99934.25;;;6.62;69.80
27805;BME280;15183;51.350;11.102;2022-11-25T00:57:22;100024.81;;;7.17;70.09
27805;BME280;15183;51.350;11.102;2022-11-25T00:59:49;99974.03;;;6.81;70.23
27805;BME280;15183;51.350;11.102;2022-11-25T01:02:16;99964.09;;;6.76;69.79
27805;BME280;15183;51.350;11.102;2022-11-25T01:04:44;100003.88;;;6.95;70.07
27805;BME280;15183;51.350;11.102;2022-11-25T01:07:11;99930.19;;;6.46;69.83
27805;BME280;15183;51.350;11.102;2022-11-25T01:09:38;100023.75;;;7.04;70.28
27805;BME280;15183;51.350;11.102;2022-11-25T01:12:05;99941.72;;;6.52;69.97
27805;BME280;15183;51.350;11.102;2022-11-25T01:14:32;99923.81;;;6.34;70.02
27805;BME280;15183;51.350;11.102;2022-11-25T01:16:59;99972.59;;;6.72;69.99
27805;BME280;15183;51.350;11.102;2022-11-25T01:19:26;100020.69;;;7.01;69.74
27805;BME280;15183;51.350;11.102;2022-11-25T01:21:53;100024.78;;;7.03;70.44
27805;BME280;15183;51.350;11.102;2022-11-25T01:24:19;100028.81;;;6.99;70.32
27805;BME280;15183;51.350;11.102;2022-11-25T01:26:46;99922.84;;;6.42;69.88
27805;BME280;15183;51.350;11.102;2022-11-25T01:29:17;99998.59;;;6.95;69.90
27805;BME280;15183;51.350;11.102;2022-11-25T01:31:47;100001.25;;;6.95;69.95
27805;BME280;15183;51.350;11.102;2022-11-25T01:34:23;99929.78;;;6.49;69.58
27805;BME280;15183;51.350;11.102;2022-11-25T01:36:50;99977.47;;;6.75;70.00
27805;BME280;15183;51.350;11.102;2022-11-25T01:39:20;99976.25;;;6.77;69.74
27805;BME280;15183;51.350;11.102;2022-11-25T01:41:48;99973.03;;;6.82;69.91
27805;BME280;15183;51.350;11.102;2022-11-25T01:44:17;100005.75;;;7.08;69.97
27805;BME280;15183;51.350;11.102;2022-11-25T01:49:46;99987.44;;;6.86;69.85
27805;BME280;15183;51.350;11.102;2022-11-25T01:52:32;99978.88;;;6.77;70.23
27805;BME280;15183;51.350;11.102;2022-11-25T01:57:55;99969.53;;;6.68;69.71
27805;BME280;15183;51.350;11.102;2022-11-25T02:00:23;99986.38;;;6.80;69.70
27805;BME280;15183;51.350;11.102;2022-11-25T02:02:53;99990.41;;;6.70;69.88
27805;BME280;15183;51.350;11.102;2022-11-25T02:06:12;100002.63;;;6.84;70.17
27805;BME280;15183;51.350;11.102;2022-11-25T02:08:45;100006.44;;;6.75;69.63
27805;BME280;15183;51.350;11.102;2022-11-25T02:11:14;99915.16;;;6.05;70.26
27805;BME280;15183;51.350;11.102;2022-11-25T02:13:43;99982.22;;;6.51;70.29
27805;BME280;15183;51.350;11.102;2022-11-25T02:16:11;99995.41;;;6.58;70.31
27805;BME280;15183;51.350;11.102;2022-11-25T02:18:38;100001.13;;;6.68;70.91
27805;BME280;15183;51.350;11.102;2022-11-25T02:21:04;100000.72;;;6.64;70.12
27805;BME280;15183;51.350;11.102;2022-11-25T02:26:07;99917.00;;;6.04;70.28
27805;BME280;15183;51.350;11.102;2022-11-25T02:28:34;100010.25;;;6.65;70.25
27805;BME280;15183;51.350;11.102;2022-11-25T02:31:01;99973.44;;;6.37;70.47
27805;BME280;15183;51.350;11.102;2022-11-25T02:33:27;100000.63;;;6.51;70.26
27805;BME280;15183;51.350;11.102;2022-11-25T02:36:04;99970.97;;;6.29;70.43
27805;BME280;15183;51.350;11.102;2022-11-25T02:41:39;99957.25;;;6.05;70.19
27805;BME280;15183;51.350;11.102;2022-11-25T02:44:07;99941.56;;;5.90;70.24
27805;BME280;15183;51.350;11.102;2022-11-25T02:46:34;99976.34;;;6.14;70.33
27805;BME280;15183;51.350;11.102;2022-11-25T02:49:02;99950.94;;;5.99;69.96
27805;BME280;15183;51.350;11.102;2022-11-25T02:51:30;99990.53;;;6.19;70.29
27805;BME280;15183;51.350;11.102;2022-11-25T02:53:58;100012.50;;;6.33;70.12
27805;BME280;15183;51.350;11.102;2022-11-25T02:56:31;99973.09;;;6.12;69.70
27805;BME280;15183;51.350;11.102;2022-11-25T02:58:58;99926.97;;;5.87;70.19
27805;BME280;15183;51.350;11.102;2022-11-25T03:01:25;99937.97;;;5.98;69.46
27805;BME280;15183;51.350;11.102;2022-11-25T03:03:52;99957.25;;;6.05;70.05
27805;BME280;15183;51.350;11.102;2022-11-25T03:06:19;99901.16;;;5.69;70.10
27805;BME280;15183;51.350;11.102;2022-11-25T03:08:45;99970.44;;;6.12;70.05
27805;BME280;15183;51.350;11.102;2022-11-25T03:11:12;99898.97;;;5.73;69.63
27805;BME280;15183;51.350;11.102;2022-11-25T03:13:38;99982.06;;;6.24;69.61
27805;BME280;15183;51.350;11.102;2022-11-25T03:16:05;100024.88;;;6.40;69.88
27805;BME280;15183;51.350;11.102;2022-11-25T03:18:32;99925.50;;;5.78;69.80
27805;BME280;15183;51.350;11.102;2022-11-25T03:20:58;99998.44;;;6.19;70.20
27805;BME280;15183;51.350;11.102;2022-11-25T03:27:07;99991.56;;;6.18;71.12
27805;BME280;15183;51.350;11.102;2022-11-25T03:29:34;99997.22;;;6.22;70.93
27805;BME280;15183;51.350;11.102;2022-11-25T03:32:01;99961.09;;;6.02;71.29
27805;BME280;15183;51.350;11.102;2022-11-25T03:34:27;99955.63;;;6.04;70.89
27805;BME280;15183;51.350;11.102;2022-11-25T03:36:57;99957.63;;;6.02;71.16
27805;BME280;15183;51.350;11.102;2022-11-25T03:39:23;100000.56;;;6.37;70.83
27805;BME280;15183;51.350;11.102;2022-11-25T03:41:50;99998.97;;;6.43;70.64
27805;BME280;15183;51.350;11.102;2022-11-25T03:44:16;100000.63;;;6.44;70.14
27805;BME280;15183;51.350;11.102;2022-11-25T03:46:43;100002.47;;;6.50;69.93
27805;BME280;15183;51.350;11.102;2022-11-25T03:49:12;99948.34;;;6.06;69.94
27805;BME280;15183;51.350;11.102;2022-11-25T03:51:39;99928.66;;;5.95;69.87
27805;BME280;15183;51.350;11.102;2022-11-25T03:54:05;99955.00;;;6.02;69.99
27805;BME280;15183;51.350;11.102;2022-11-25T03:56:32;99951.25;;;5.89;69.91
27805;BME280;15183;51.350;11.102;2022-11-25T03:58:58;99982.22;;;6.16;69.71
27805;BME280;15183;51.350;11.102;2022-11-25T04:01:25;100004.38;;;6.28;70.31
27805;BME280;15183;51.350;11.102;2022-11-25T04:03:51;99998.03;;;6.22;69.65
27805;BME280;15183;51.350;11.102;2022-11-25T04:06:18;99903.34;;;5.65;70.31
27805;BME280;15183;51.350;11.102;2022-11-25T04:08:46;100008.84;;;6.34;70.10
27805;BME280;15183;51.350;11.102;2022-11-25T04:11:13;99945.63;;;5.92;69.85
27805;BME280;15183;51.350;11.102;2022-11-25T04:13:39;99983.03;;;6.16;69.66
27805;BME280;15183;51.350;11.102;2022-11-25T04:16:06;99970.13;;;6.21;69.98
27805;BME280;15183;51.350;11.102;2022-11-25T04:18:32;99989.19;;;6.30;69.40
27805;BME280;15183;51.350;11.102;2022-11-25T04:20:58;99994.72;;;6.42;69.76
27805;BME280;15183;51.350;11.102;2022-11-25T04:23:25;99931.47;;;5.93;69.28
27805;BME280;15183;51.350;11.102;2022-11-25T04:25:51;99961.59;;;6.19;69.40
27805;BME280;15183;51.350;11.102;2022-11-25T04:28:18;99916.91;;;5.91;68.93
27805;BME280;15183;51.350;11.102;2022-11-25T04:30:44;99965.25;;;6.18;69.45
27805;BME280;15183;51.350;11.102;2022-11-25T04:33:11;99959.88;;;6.05;69.38
27805;BME280;15183;51.350;11.102;2022-11-25T04:35:37;99959.75;;;6.13;69.52
27805;BME280;15183;51.350;11.102;2022-11-25T04:38:03;99958.16;;;6.19;69.37
27805;BME280;15183;51.350;11.102;2022-11-25T04:40:30;99981.03;;;6.18;69.20
27805;BME280;15183;51.350;11.102;2022-11-25T04:42:57;99962.91;;;6.02;69.50
27805;BME280;15183;51.350;11.102;2022-11-25T04:45:23;99901.34;;;5.68;69.27
27805;BME280;15183;51.350;11.102;2022-11-25T04:47:50;99963.94;;;6.07;69.37
27805;BME280;15183;51.350;11.102;2022-11-25T04:50:19;99967.19;;;6.10;68.96
27805;BME280;15183;51.350;11.102;2022-11-25T04:52:46;99938.31;;;5.88;69.06
27805;BME280;15183;51.350;11.102;2022-11-25T04:55:13;99981.19;;;6.10;69.14
27805;BME280;15183;51.350;11.102;2022-11-25T04:57:39;99943.81;;;5.93;68.93
27805;BME280;15183;51.350;11.102;2022-11-25T05:00:07;99958.00;;;5.99;68.97
27805;BME280;15183;51.350;11.102;2022-11-25T05:02:35;99970.34;;;5.98;69.35
27805;BME280;15183;51.350;11.102;2022-11-25T05:05:01;100001.69;;;6.21;69.17
27805;BME280;15183;51.350;11.102;2022-11-25T05:07:28;99911.88;;;5.68;69.59
27805;BME280;15183;51.350;11.102;2022-11-25T05:09:55;99965.84;;;5.92;69.37
27805;BME280;15183;51.350;11.102;2022-11-25T05:12:28;99981.41;;;6.15;69.18
27805;BME280;15183;51.350;11.102;2022-11-25T05:14:55;99961.88;;;6.03;69.28
27805;BME280;15183;51.350;11.102;2022-11-25T05:17:28;99975.09;;;6.10;69.25
27805;BME280;15183;51.350;11.102;2022-11-25T05:19:54;99954.34;;;6.00;68.78
27805;BME280;15183;51.350;11.102;2022-11-25T05:22:28;99972.06;;;6.13;69.27
27805;BME280;15183;51.350;11.102;2022-11-25T05:24:55;99901.63;;;5.73;69.32
27805;BME280;15183;51.350;11.102;2022-11-25T05:27:23;99907.88;;;5.72;69.19
27805;BME280;15183;51.350;11.102;2022-11-25T05:29:53;99991.22;;;6.35;69.65
27805;BME280;15183;51.350;11.102;2022-11-25T05:32:20;99908.53;;;5.80;68.81
27805;BME280;15183;51.350;11.102;2022-11-25T05:34:46;99984.13;;;6.29;69.49
27805;BME280;15183;51.350;11.102;2022-11-25T05:37:13;99900.84;;;5.79;69.17
27805;BME280;15183;51.350;11.102;2022-11-25T05:39:39;99971.06;;;6.14;69.48
27805;BME280;15183;51.350;11.102;2022-11-25T05:42:07;99966.19;;;6.11;69.66
27805;BME280;15183;51.350;11.102;2022-11-25T05:44:33;99926.81;;;5.96;69.47
27805;BME280;15183;51.350;11.102;2022-11-25T05:47:00;99923.97;;;5.90;69.38
27805;BME280;15183;51.350;11.102;2022-11-25T05:49:26;99972.53;;;6.23;69.55
27805;BME280;15183;51.350;11.102;2022-11-25T05:51:53;99987.97;;;6.33;69.36
27805;BME280;15183;51.350;11.102;2022-11-25T05:54:19;99982.72;;;6.33;69.34
27805;BME280;15183;51.350;11.102;2022-11-25T05:56:45;99964.00;;;6.14;69.59
27805;BME280;15183;51.350;11.102;2022-11-25T05:59:12;99942.69;;;6.02;69.45
27805;BME280;15183;51.350;11.102;2022-11-25T06:01:38;100000.63;;;6.44;69.46
27805;BME280;15183;51.350;11.102;2022-11-25T06:04:05;99967.66;;;6.20;69.13
27805;BME280;15183;51.350;11.102;2022-11-25T06:06:31;99918.47;;;5.85;69.22
27805;BME280;15183;51.350;11.102;2022-11-25T06:08:59;100005.63;;;6.39;69.10
27805;BME280;15183;51.350;11.102;2022-11-25T06:11:25;99938.13;;;5.89;68.54
27805;BME280;15183;51.350;11.102;2022-11-25T06:13:52;99969.16;;;6.01;68.93
27805;BME280;15183;51.350;11.102;2022-11-25T06:16:22;99890.69;;;5.47;68.81
27805;BME280;15183;51.350;11.102;2022-11-25T06:18:49;99972.69;;;5.86;68.97
27805;BME280;15183;51.350;11.102;2022-11-25T06:21:16;100018.84;;;6.17;69.06
27805;BME280;15183;51.350;11.102;2022-11-25T06:23:44;100014.75;;;6.08;68.80
27805;BME280;15183;51.350;11.102;2022-11-25T06:26:16;99944.63;;;5.65;69.13
27805;BME280;15183;51.350;11.102;2022-11-25T06:28:44;99958.81;;;5.71;68.89
27805;BME280;15183;51.350;11.102;2022-11-25T06:31:17;99989.41;;;5.78;68.88
27805;BME280;15183;51.350;11.102;2022-11-25T06:33:51;99936.69;;;5.36;69.45
27805;BME280;15183;51.350;11.102;2022-11-25T06:36:20;99953.44;;;5.57;69.08
27805;BME280;15183;51.350;11.102;2022-11-25T06:38:52;99918.09;;;5.38;69.30
27805;BME280;15183;51.350;11.102;2022-11-25T06:41:21;99962.19;;;5.64;69.55
27805;BME280;15183;51.350;11.102;2022-11-25T06:43:50;99994.47;;;5.80;69.02
27805;BME280;15183;51.350;11.102;2022-11-25T06:46:19;99943.69;;;5.51;69.27
27805;BME280;15183;51.350;11.102;2022-11-25T06:48:46;100040.41;;;6.06;69.50
27805;BME280;15183;51.350;11.102;2022-11-25T06:51:14;100049.31;;;6.05;68.84
27805;BME280;15183;51.350;11.102;2022-11-25T06:53:41;100025.31;;;5.93;69.61
27805;BME280;15183;51.350;11.102;2022-11-25T06:56:17;100016.19;;;5.89;69.11
27805;BME280;15183;51.350;11.102;2022-11-25T06:58:46;100012.13;;;5.86;69.38
27805;BME280;15183;51.350;11.102;2022-11-25T07:01:21;100040.41;;;6.06;69.36
27805;BME280;15183;51.350;11.102;2022-11-25T07:03:52;99984.84;;;5.65;69.20
27805;BME280;15183;51.350;11.102;2022-11-25T07:06:20;100035.22;;;5.91;68.90
27805;BME280;15183;51.350;11.102;2022-11-25T07:08:47;100024.88;;;5.89;69.13
27805;BME280;15183;51.350;11.102;2022-11-25T07:11:25;100006.69;;;5.88;69.46
27805;BME280;15183;51.350;11.102;2022-11-25T07:13:54;100043.94;;;6.13;69.81
27805;BME280;15183;51.350;11.102;2022-11-25T07:16:21;99999.41;;;5.90;69.29
27805;BME280;15183;51.350;11.102;2022-11-25T07:18:48;100020.09;;;6.21;69.38
27805;BME280;15183;51.350;11.102;2022-11-25T07:21:20;100024.41;;;6.29;70.02
27805;BME280;15183;51.350;11.102;2022-11-25T07:23:47;100016.31;;;6.31;70.18
27805;BME280;15183;51.350;11.102;2022-11-25T07:26:27;100036.28;;;6.54;69.95
27805;BME280;15183;51.350;11.102;2022-11-25T07:28:58;100014.97;;;6.42;70.14
27805;BME280;15183;51.350;11.102;2022-11-25T07:31:31;100030.25;;;6.60;70.11
27805;BME280;15183;51.350;11.102;2022-11-25T07:34:01;100018.88;;;6.53;69.79
27805;BME280;15183;51.350;11.102;2022-11-25T07:36:31;100053.69;;;6.90;70.08
27805;BME280;15183;51.350;11.102;2022-11-25T07:39:00;100056.47;;;6.81;69.95
27805;BME280;15183;51.350;11.102;2022-11-25T07:41:29;100055.94;;;6.93;69.84
27805;BME280;15183;51.350;11.102;2022-11-25T07:43:59;100010.44;;;6.64;70.04
27805;BME280;15183;51.350;11.102;2022-11-25T07:46:36;100073.44;;;7.14;70.03
27805;BME280;15183;51.350;11.102;2022-11-25T07:49:06;100077.94;;;7.20;70.08
27805;BME280;15183;51.350;11.102;2022-11-25T07:54:06;100022.72;;;6.92;70.32
27805;BME280;15183;51.350;11.102;2022-11-25T07:56:35;100015.81;;;6.91;69.83
27805;BME280;15183;51.350;11.102;2022-11-25T07:59:02;100074.09;;;7.30;70.05
27805;BME280;15183;51.350;11.102;2022-11-25T08:01:29;100018.06;;;6.94;69.86
27805;BME280;15183;51.350;11.102;2022-11-25T08:03:56;100036.97;;;7.11;69.98
27805;BME280;15183;51.350;11.102;2022-11-25T08:06:26;100088.94;;;7.37;70.34
27805;BME280;15183;51.350;11.102;2022-11-25T08:08:55;100039.44;;;7.26;70.38
27805;BME280;15183;51.350;11.102;2022-11-25T08:11:25;100063.44;;;7.51;70.58
27805;BME280;15183;51.350;11.102;2022-11-25T08:13:52;99992.97;;;7.05;70.73
27805;BME280;15183;51.350;11.102;2022-11-25T08:16:21;100060.38;;;7.41;70.53
27805;BME280;15183;51.350;11.102;2022-11-25T08:18:49;100067.28;;;7.56;70.72
27805;BME280;15183;51.350;11.102;2022-11-25T08:21:16;100057.34;;;7.44;70.69
27805;BME280;15183;51.350;11.102;2022-11-25T08:23:44;100056.94;;;7.47;71.06
27805;BME280;15183;51.350;11.102;2022-11-25T08:26:21;100018.78;;;7.36;71.45
27805;BME280;15183;51.350;11.102;2022-11-25T08:28:49;100071.56;;;7.70;71.65
27805;BME280;15183;51.350;11.102;2022-11-25T08:31:23;100025.91;;;7.56;71.51
27805;BME280;15183;51.350;11.102;2022-11-25T08:33:50;99968.13;;;7.41;71.09
27805;BME280;15183;51.350;11.102;2022-11-25T08:36:18;100011.53;;;7.79;71.47
27805;BME280;15183;51.350;11.102;2022-11-25T08:38:47;100082.16;;;8.31;71.57
27805;BME280;15183;51.350;11.102;2022-11-25T08:41:28;100078.09;;;8.28;71.11
27805;BME280;15183;51.350;11.102;2022-11-25T08:43:57;100087.41;;;8.31;71.24
27805;BME280;15183;51.350;11.102;2022-11-25T08:46:30;100077.28;;;8.28;70.91
27805;BME280;15183;51.350;11.102;2022-11-25T08:48:59;100083.78;;;8.45;71.49
27805;BME280;15183;51.350;11.102;2022-11-25T08:51:30;99996.53;;;8.00;71.00
27805;BME280;15183;51.350;11.102;2022-11-25T08:53:58;100043.56;;;8.30;71.22
27805;BME280;15183;51.350;11.102;2022-11-25T08:56:25;100019.22;;;8.34;71.77
27805;BME280;15183;51.350;11.102;2022-11-25T08:58:53;100072.19;;;8.66;71.67
27805;BME280;15183;51.350;11.102;2022-11-25T09:01:21;100026.50;;;8.52;71.64
27805;BME280;15183;51.350;11.102;2022-11-25T09:03:51;100049.63;;;8.77;71.15
27805;BME280;15183;51.350;11.102;2022-11-25T09:06:19;100007.81;;;8.47;71.04
27805;BME280;15183;51.350;11.102;2022-11-25T09:08:46;100076.00;;;8.84;70.81
27805;BME280;15183;51.350;11.102;2022-11-25T09:11:13;100069.72;;;8.72;71.21
27805;BME280;15183;51.350;11.102;2022-11-25T09:13:40;100036.03;;;8.47;71.26
27805;BME280;15183;51.350;11.102;2022-11-25T09:16:07;100115.00;;;8.89;70.90
27805;BME280;15183;51.350;11.102;2022-11-25T09:18:34;100022.25;;;8.24;71.81
27805;BME280;15183;51.350;11.102;2022-11-25T09:21:11;100089.84;;;8.66;71.87
27805;BME280;15183;51.350;11.102;2022-11-25T09:23:41;100084.75;;;8.71;71.80
27805;BME280;15183;51.350;11.102;2022-11-25T09:26:24;100107.69;;;8.84;72.12
27805;BME280;15183;51.350;11.102;2022-11-25T09:28:51;100092.91;;;8.76;71.81
27805;BME280;15183;51.350;11.102;2022-11-25T09:31:19;100075.44;;;8.68;71.49
27805;BME280;15183;51.350;11.102;2022-11-25T09:33:45;100080.31;;;8.72;71.45
27805;BME280;15183;51.350;11.102;2022-11-25T09:36:14;100137.16;;;8.88;71.80
27805;BME280;15183;51.350;11.102;2022-11-25T09:38:42;100115.47;;;8.72;71.63
27805;BME280;15183;51.350;11.102;2022-11-25T09:41:56;100125.56;;;8.89;71.98
27805;BME280;15183;51.350;11.102;2022-11-25T09:48:21;100064.31;;;8.53;72.44
27805;BME280;15183;51.350;11.102;2022-11-25T09:51:23;100119.81;;;9.05;73.53
27805;BME280;15183;51.350;11.102;2022-11-25T09:53:57;100088.97;;;8.99;73.38
27805;BME280;15183;51.350;11.102;2022-11-25T09:56:34;100019.13;;;8.68;74.01
27805;BME280;15183;51.350;11.102;2022-11-25T09:59:17;100057.00;;;9.07;73.41
27805;BME280;15183;51.350;11.102;2022-11-25T10:02:11;100078.47;;;9.31;72.95
27805;BME280;15183;51.350;11.102;2022-11-25T10:04:50;100070.94;;;9.28;73.33
27805;BME280;15183;51.350;11.102;2022-11-25T10:07:46;100053.88;;;9.31;73.61
27805;BME280;15183;51.350;11.102;2022-11-25T10:10:27;100045.28;;;9.35;73.36
27805;BME280;15183;51.350;11.102;2022-11-25T10:12:57;100037.75;;;9.39;73.51
27805;BME280;15183;51.350;11.102;2022-11-25T10:15:39;100075.91;;;9.82;73.52
27805;BME280;15183;51.350;11.102;2022-11-25T10:18:23;100107.28;;;10.10;73.48
27805;BME280;15183;51.350;11.102;2022-11-25T10:20:53;100032.09;;;9.61;73.46
27805;BME280;15183;51.350;11.102;2022-11-25T10:25:58;100084.16;;;10.24;73.83
27805;BME280;15183;51.350;11.102;2022-11-25T10:28:32;100024.97;;;9.93;73.35
27805;BME280;15183;51.350;11.102;2022-11-25T10:31:18;100061.66;;;10.34;74.31
27805;BME280;15183;51.350;11.102;2022-11-25T10:33:55;100032.25;;;10.23;74.71
27805;BME280;15183;51.350;11.102;2022-11-25T10:36:32;100102.81;;;10.80;74.37
27805;BME280;15183;51.350;11.102;2022-11-25T10:39:16;100037.66;;;10.54;74.69
27805;BME280;15183;51.350;11.102;2022-11-25T10:42:13;100064.50;;;10.95;74.85
27805;BME280;15183;51.350;11.102;2022-11-25T10:44:41;100076.94;;;11.13;74.74
27805;BME280;15183;51.350;11.102;2022-11-25T10:47:50;100098.47;;;11.54;74.91
27805;BME280;15183;51.350;11.102;2022-11-25T10:51:05;100079.34;;;11.64;75.01
27805;BME280;15183;51.350;11.102;2022-11-25T10:53:34;100094.16;;;11.83;74.62
27805;BME280;15183;51.350;11.102;2022-11-25T10:56:12;99992.50;;;11.28;74.40
27805;BME280;15183;51.350;11.102;2022-11-25T10:58:42;100043.56;;;11.66;74.16
27805;BME280;15183;51.350;11.102;2022-11-25T11:01:22;100082.00;;;12.06;74.07
27805;BME280;15183;51.350;11.102;2022-11-25T11:04:10;100091.16;;;12.22;74.11
27805;BME280;15183;51.350;11.102;2022-11-25T11:06:44;100051.97;;;12.06;74.28
27805;BME280;15183;51.350;11.102;2022-11-25T11:09:34;100090.34;;;12.34;74.00
27805;BME280;15183;51.350;11.102;2022-11-25T11:12:27;100094.97;;;12.38;74.17
27805;BME280;15183;51.350;11.102;2022-11-25T11:15:23;100045.53;;;12.13;73.91
27805;BME280;15183;51.350;11.102;2022-11-25T11:17:54;100010.25;;;11.94;74.03
27805;BME280;15183;51.350;11.102;2022-11-25T11:20:30;100045.41;;;12.32;73.71
27805;BME280;15183;51.350;11.102;2022-11-25T11:23:08;100080.50;;;12.58;73.82
27805;BME280;15183;51.350;11.102;2022-11-25T11:25:38;100086.50;;;12.77;73.91
27805;BME280;15183;51.350;11.102;2022-11-25T11:28:40;100089.81;;;12.84;73.72
27805;BME280;15183;51.350;11.102;2022-11-25T11:31:38;100085.69;;;12.88;73.57
27805;BME280;15183;51.350;11.102;2022-11-25T11:37:21;100066.13;;;12.95;74.07
27805;BME280;15183;51.350;11.102;2022-11-25T11:56:41;100035.56;;;12.09;73.12
27805;BME280;15183;51.350;11.102;2022-11-25T12:05:19;100046.94;;;11.73;73.58
27805;BME280;15183;51.350;11.102;2022-11-25T12:11:15;100047.34;;;11.47;73.71
27805;BME280;15183;51.350;11.102;2022-11-25T12:16:43;100013.53;;;11.11;74.51
27805;BME280;15183;51.350;11.102;2022-11-25T12:19:26;100050.47;;;11.25;74.91
27805;BME280;15183;51.350;11.102;2022-11-25T12:22:31;100039.97;;;11.18;74.38
27805;BME280;15183;51.350;11.102;2022-11-25T12:25:18;100085.22;;;11.35;74.81
27805;BME280;15183;51.350;11.102;2022-11-25T12:30:35;100082.09;;;11.26;74.26
27805;BME280;15183;51.350;11.102;2022-11-25T12:34:06;100080.03;;;11.10;74.73
27805;BME280;15183;51.350;11.102;2022-11-25T12:36:17;100025.09;;;10.68;74.60
27805;BME280;15183;51.350;11.102;2022-11-25T12:39:05;100053.09;;;10.76;74.78
27805;BME280;15183;51.350;11.102;2022-11-25T12:41:50;100102.53;;;11.07;74.58
27805;BME280;15183;51.350;11.102;2022-11-25T12:46:59;100026.53;;;10.45;75.27
27805;BME280;15183;51.350;11.102;2022-11-25T12:49:29;100113.50;;;10.92;75.28
27805;BME280;15183;51.350;11.102;2022-11-25T12:55:22;100093.84;;;10.63;75.33
27805;BME280;15183;51.350;11.102;2022-11-25T13:15:43;100069.94;;;9.93;75.95
27805;BME280;15183;51.350;11.102;2022-11-25T13:18:19;100139.25;;;10.41;76.43
27805;BME280;15183;51.350;11.102;2022-11-25T13:20:55;100087.03;;;9.97;76.06
27805;BME280;15183;51.350;11.102;2022-11-25T13:24:00;100136.03;;;10.32;76.19
27805;BME280;15183;51.350;11.102;2022-11-25T13:29:00;100124.72;;;10.18;76.22
27805;BME280;15183;51.350;11.102;2022-11-25T13:36:52;100110.84;;;9.97;76.79
27805;BME280;15183;51.350;11.102;2022-11-25T13:44:55;100136.75;;;10.21;77.14
27805;BME280;15183;51.350;11.102;2022-11-25T13:47:39;100113.97;;;10.13;77.48
27805;BME280;15183;51.350;11.102;2022-11-25T13:55:32;100172.38;;;10.50;77.26
27805;BME280;15183;51.350;11.102;2022-11-25T14:08:56;100122.91;;;9.87;77.23
27805;BME280;15183;51.350;11.102;2022-11-25T14:11:43;100191.59;;;10.39;77.50
27805;BME280;15183;51.350;11.102;2022-11-25T14:15:25;100183.47;;;10.40;77.67
27805;BME280;15183;51.350;11.102;2022-11-25T14:20:31;100184.53;;;10.33;78.02
27805;BME280;15183;51.350;11.102;2022-11-25T14:25:33;100164.66;;;10.17;78.08
27805;BME280;15183;51.350;11.102;2022-11-25T14:28:30;100205.88;;;10.45;77.79
27805;BME280;15183;51.350;11.102;2022-11-25T14:31:06;100189.59;;;10.34;78.18
27805;BME280;15183;51.350;11.102;2022-11-25T14:33:50;100201.19;;;10.40;78.04
27805;BME280;15183;51.350;11.102;2022-11-25T14:36:42;100210.56;;;10.42;77.87
27805;BME280;15183;51.350;11.102;2022-11-25T14:39:23;100186.03;;;10.22;78.43
27805;BME280;15183;51.350;11.102;2022-11-25T14:42:07;100199.97;;;10.36;77.91
27805;BME280;15183;51.350;11.102;2022-11-25T14:44:51;100203.50;;;10.30;77.75
27805;BME280;15183;51.350;11.102;2022-11-25T14:47:30;100217.25;;;10.45;78.13
27805;BME280;15183;51.350;11.102;2022-11-25T14:49:58;100149.94;;;9.95;78.31
27805;BME280;15183;51.350;11.102;2022-11-25T14:52:29;100176.75;;;10.06;77.99
27805;BME280;15183;51.350;11.102;2022-11-25T14:54:59;100174.69;;;10.08;78.14
27805;BME280;15183;51.350;11.102;2022-11-25T14:57:39;100222.22;;;10.28;78.41
27805;BME280;15183;51.350;11.102;2022-11-25T15:00:12;100171.91;;;9.96;78.24
27805;BME280;15183;51.350;11.102;2022-11-25T15:03:13;100224.25;;;10.33;78.30
27805;BME280;15183;51.350;11.102;2022-11-25T15:05:41;100205.31;;;10.29;78.09
27805;BME280;15183;51.350;11.102;2022-11-25T15:08:14;100199.22;;;10.28;78.56
27805;BME280;15183;51.350;11.102;2022-11-25T15:10:59;100221.69;;;10.51;78.08
27805;BME280;15183;51.350;11.102;2022-11-25T15:13:44;100195.72;;;10.35;78.07
27805;BME280;15183;51.350;11.102;2022-11-25T15:16:34;100239.16;;;10.59;78.54
27805;BME280;15183;51.350;11.102;2022-11-25T15:19:04;100190.19;;;10.36;78.31